createdAt,value
2022-12-31T00:00:03.200Z,85
2022-12-31T00:20:03.198Z,85
2022-12-31T00:40:02.531Z,85
2022-12-31T01:00:03.014Z,85
2022-12-31T01:20:02.943Z,84
2022-12-31T01:40:02.498Z,84
2022-12-31T02:00:03.026Z,84
2022-12-31T02:20:03.495Z,84
2022-12-31T02:40:03.052Z,84
2022-12-31T03:00:02.598Z,84
2022-12-31T03:20:02.482Z,84
2022-12-31T03:40:03.100Z,84
2022-12-31T04:00:02.617Z,85
2022-12-31T04:20:02.791Z,85
2022-12-31T04:40:07.059Z,85
2022-12-31T05:00:02.655Z,85
2022-12-31T05:20:03.189Z,85
2022-12-31T05:40:02.632Z,85
2022-12-31T06:00:03.200Z,86
2022-12-31T06:20:12.341Z,88
2022-12-31T06:40:02.305Z,90
2022-12-31T07:00:02.802Z,91
2022-12-31T07:20:02.741Z,91
2022-12-31T07:40:03.208Z,91
2022-12-31T08:00:02.771Z,90
2022-12-31T08:20:02.444Z,89
2022-12-31T08:40:02.984Z,85
2022-12-31T09:00:02.499Z,83
2022-12-31T09:20:02.566Z,81
2022-12-31T09:40:03.127Z,80
2022-12-31T10:00:03.258Z,78
2022-12-31T10:20:03.221Z,76
2022-12-31T10:40:02.807Z,74
2022-12-31T11:00:03.404Z,74
2022-12-31T11:20:03.338Z,74
2022-12-31T11:40:02.790Z,74
2022-12-31T12:00:03.323Z,75
2022-12-31T12:20:03.235Z,75
2022-12-31T12:40:02.985Z,74
2022-12-31T13:00:02.437Z,73
2022-12-31T13:20:03.392Z,71
2022-12-31T13:40:02.748Z,70
2022-12-31T14:00:03.466Z,69
2022-12-31T14:20:03.344Z,68
2022-12-31T14:40:02.867Z,68
2022-12-31T15:00:02.586Z,68
2022-12-31T15:20:03.009Z,68
2022-12-31T15:40:02.760Z,68
2022-12-31T16:00:03.392Z,69
2022-12-31T16:20:03.047Z,69
2022-12-31T16:40:02.659Z,69
2022-12-31T17:00:03.350Z,69
2022-12-31T17:20:03.275Z,68
2022-12-31T17:40:51.524Z,67
2022-12-31T18:00:02.397Z,67
2022-12-31T18:20:06.441Z,66
2022-12-31T18:40:03.149Z,66
2022-12-31T19:00:02.777Z,67
2022-12-31T19:20:02.871Z,67
2022-12-31T19:40:02.383Z,68
2022-12-31T20:00:02.773Z,68
2022-12-31T20:20:02.703Z,68
2022-12-31T20:40:03.171Z,68
2022-12-31T21:00:02.907Z,67
2022-12-31T21:20:03.643Z,66
2022-12-31T21:40:03.291Z,66
2022-12-31T22:00:42.613Z,66
2022-12-31T22:20:28.071Z,66
2022-12-31T22:40:02.942Z,65
2022-12-31T23:00:02.597Z,65
2022-12-31T23:20:03.430Z,64
2022-12-31T23:40:02.959Z,64
